sensor_id;sensor_type;location;lat;lon;timestamp;pressure;altitude;pressure_sealevel;temperature;humidity
14612;BME280;7392;52.078;11.650;2022-11-06T00:00:17;101099.25;;;5.16;100.00
14612;BME280;7392;52.078;11.650;2022-11-06T00:02:46;101105.44;;;5.16;100.00
14612;BME280;7392;52.078;11.650;2022-11-06T00:05:14;101107.19;;;5.17;100.00
14612;BME280;7392;52.078;11.650;2022-11-06T00:07:59;101103.72;;;5.18;100.00
14612;BME280;7392;52.078;11.650;2022-11-06T00:10:29;101103.78;;;5.20;100.00
14612;BME280;7392;52.078;11.650;2022-11-06T00:12:58;101110.00;;;5.23;100.00
14612;BME280;7392;52.078;11.650;2022-11-06T00:15:27;101113.56;;;5.25;100.00
14612;BME280;7392;52.078;11.650;2022-11-06T00:17:55;101111.84;;;5.28;100.00
14612;BME280;7392;52.078;11.650;2022-11-06T00:20:23;101110.13;;;5.28;100.00
14612;BME280;7392;52.078;11.650;2022-11-06T00:22:51;101096.97;;;5.28;100.00
14612;BME280;7392;52.078;11.650;2022-11-06T00:25:19;101090.78;;;5.28;100.00
14612;BME280;7392;52.078;11.650;2022-11-06T00:27:47;101095.19;;;5.29;100.00
14612;BME280;7392;52.078;11.650;2022-11-06T00:30:15;101095.16;;;5.27;100.00
14612;BME280;7392;52.078;11.650;2022-11-06T00:32:46;101095.19;;;5.29;100.00
14612;BME280;7392;52.078;11.650;2022-11-06T00:35:14;101086.44;;;5.28;100.00
14612;BME280;7392;52.078;11.650;2022-11-06T00:37:42;101089.00;;;5.27;100.00
14612;BME280;7392;52.078;11.650;2022-11-06T00:40:11;101085.50;;;5.26;100.00
14612;BME280;7392;52.078;11.650;2022-11-06T00:42:39;101081.94;;;5.25;100.00
14612;BME280;7392;52.078;11.650;2022-11-06T00:45:08;101079.31;;;5.25;100.00
14612;BME280;7392;52.078;11.650;2022-11-06T00:47:36;101081.03;;;5.23;100.00
14612;BME280;7392;52.078;11.650;2022-11-06T00:50:06;101073.03;;;5.20;100.00
14612;BME280;7392;52.078;11.650;2022-11-06T00:52:34;101076.59;;;5.22;100.00
14612;BME280;7392;52.078;11.650;2022-11-06T00:55:02;101067.78;;;5.20;100.00
14612;BME280;7392;52.078;11.650;2022-11-06T00:57:30;101064.19;;;5.17;100.00
14612;BME280;7392;52.078;11.650;2022-11-06T00:59:58;101073.84;;;5.16;100.00
14612;BME280;7392;52.078;11.650;2022-11-06T01:02:26;101075.53;;;5.14;100.00
14612;BME280;7392;52.078;11.650;2022-11-06T01:04:54;101071.91;;;5.11;100.00
14612;BME280;7392;52.078;11.650;2022-11-06T01:07:23;101076.25;;;5.09;100.00
14612;BME280;7392;52.078;11.650;2022-11-06T01:09:51;101071.81;;;5.06;100.00
14612;BME280;7392;52.078;11.650;2022-11-06T01:12:19;101075.34;;;5.06;100.00
14612;BME280;7392;52.078;11.650;2022-11-06T01:14:46;101060.38;;;5.04;100.00
14612;BME280;7392;52.078;11.650;2022-11-06T01:17:14;101054.22;;;5.05;100.00
14612;BME280;7392;52.078;11.650;2022-11-06T01:19:42;101062.09;;;5.03;100.00
14612;BME280;7392;52.078;11.650;2022-11-06T01:22:10;101068.25;;;5.04;100.00
14612;BME280;7392;52.078;11.650;2022-11-06T01:24:39;101055.97;;;5.04;100.00
14612;BME280;7392;52.078;11.650;2022-11-06T01:27:07;101060.38;;;5.04;100.00
14612;BME280;7392;52.078;11.650;2022-11-06T01:29:52;101059.41;;;5.02;100.00
14612;BME280;7392;52.078;11.650;2022-11-06T01:32:20;101066.44;;;5.01;100.00
14612;BME280;7392;52.078;11.650;2022-11-06T01:34:48;101071.66;;;5.00;100.00
14612;BME280;7392;52.078;11.650;2022-11-06T01:37:16;101071.56;;;4.97;100.00
14612;BME280;7392;52.078;11.650;2022-11-06T01:39:47;101065.38;;;4.95;100.00
14612;BME280;7392;52.078;11.650;2022-11-06T01:42:19;101053.03;;;4.92;100.00
14612;BME280;7392;52.078;11.650;2022-11-06T01:45:23;101052.09;;;4.89;100.00
14612;BME280;7392;52.078;11.650;2022-11-06T01:47:52;101052.00;;;4.85;100.00
14612;BME280;7392;52.078;11.650;2022-11-06T01:50:20;101044.91;;;4.83;100.00
14612;BME280;7392;52.078;11.650;2022-11-06T01:52:49;101053.63;;;4.80;100.00
14612;BME280;7392;52.078;11.650;2022-11-06T01:55:22;101051.78;;;4.78;100.00
14612;BME280;7392;52.078;11.650;2022-11-06T01:57:51;101041.16;;;4.75;100.00
14612;BME280;7392;52.078;11.650;2022-11-06T02:00:19;101047.25;;;4.72;100.00
14612;BME280;7392;52.078;11.650;2022-11-06T02:02:47;101055.09;;;4.71;100.00
14612;BME280;7392;52.078;11.650;2022-11-06T02:05:16;101052.38;;;4.67;100.00
14612;BME280;7392;52.078;11.650;2022-11-06T02:07:44;101045.31;;;4.65;100.00
14612;BME280;7392;52.078;11.650;2022-11-06T02:10:13;101039.03;;;4.60;100.00
14612;BME280;7392;52.078;11.650;2022-11-06T02:12:52;101036.28;;;4.55;100.00
14612;BME280;7392;52.078;11.650;2022-11-06T02:15:28;101037.94;;;4.52;100.00
14612;BME280;7392;52.078;11.650;2022-11-06T02:18:11;101023.81;;;4.48;100.00
14612;BME280;7392;52.078;11.650;2022-11-06T02:20:49;101026.34;;;4.45;100.00
14612;BME280;7392;52.078;11.650;2022-11-06T02:23:36;101027.13;;;4.42;100.00
14612;BME280;7392;52.078;11.650;2022-11-06T02:26:21;101032.31;;;4.38;100.00
14612;BME280;7392;52.078;11.650;2022-11-06T02:28:55;101042.72;;;4.35;100.00
14612;BME280;7392;52.078;11.650;2022-11-06T02:31:27;101040.88;;;4.32;100.00
14612;BME280;7392;52.078;11.650;2022-11-06T02:34:00;101041.75;;;4.31;100.00
14612;BME280;7392;52.078;11.650;2022-11-06T02:36:34;101033.78;;;4.28;100.00
14612;BME280;7392;52.078;11.650;2022-11-06T02:39:07;101029.34;;;4.27;100.00
14612;BME280;7392;52.078;11.650;2022-11-06T02:41:40;101028.38;;;4.23;100.00
14612;BME280;7392;52.078;11.650;2022-11-06T02:44:14;101023.94;;;4.21;100.00
14612;BME280;7392;52.078;11.650;2022-11-06T02:46:48;101025.59;;;4.17;100.00
14612;BME280;7392;52.078;11.650;2022-11-06T02:49:23;101028.97;;;4.13;100.00
14612;BME280;7392;52.078;11.650;2022-11-06T02:51:55;101016.53;;;4.07;100.00
14612;BME280;7392;52.078;11.650;2022-11-06T02:54:25;101014.69;;;4.03;100.00
14612;BME280;7392;52.078;11.650;2022-11-06T02:56:58;101018.97;;;4.01;100.00
14612;BME280;7392;52.078;11.650;2022-11-06T02:59:31;101020.69;;;3.99;100.00
14612;BME280;7392;52.078;11.650;2022-11-06T03:02:02;101017.16;;;3.99;100.00
14612;BME280;7392;52.078;11.650;2022-11-06T03:04:36;101024.13;;;3.97;100.00
14612;BME280;7392;52.078;11.650;2022-11-06T03:07:10;101024.13;;;3.97;100.00
14612;BME280;7392;52.078;11.650;2022-11-06T03:09:42;101027.63;;;3.97;100.00
14612;BME280;7392;52.078;11.650;2022-11-06T03:12:19;101022.38;;;3.97;100.00
14612;BME280;7392;52.078;11.650;2022-11-06T03:14:56;101022.44;;;3.99;100.00
14612;BME280;7392;52.078;11.650;2022-11-06T03:17:30;101016.34;;;4.00;100.00
14612;BME280;7392;52.078;11.650;2022-11-06T03:20:08;101017.28;;;4.02;100.00
14612;BME280;7392;52.078;11.650;2022-11-06T03:22:47;101020.88;;;4.05;100.00
14612;BME280;7392;52.078;11.650;2022-11-06T03:25:19;101017.44;;;4.08;100.00
14612;BME280;7392;52.078;11.650;2022-11-06T03:27:56;101016.69;;;4.12;100.00
14612;BME280;7392;52.078;11.650;2022-11-06T03:30:28;101016.78;;;4.15;100.00
14612;BME280;7392;52.078;11.650;2022-11-06T03:33:01;101007.19;;;4.17;100.00
14612;BME280;7392;52.078;11.650;2022-11-06T03:35:37;100998.56;;;4.23;100.00
14612;BME280;7392;52.078;11.650;2022-11-06T03:38:09;101006.59;;;4.27;100.00
14612;BME280;7392;52.078;11.650;2022-11-06T03:40:44;101002.31;;;4.31;100.00
14612;BME280;7392;52.078;11.650;2022-11-06T03:43:16;100994.56;;;4.36;100.00
14612;BME280;7392;52.078;11.650;2022-11-06T03:45:48;100994.66;;;4.40;100.00
14612;BME280;7392;52.078;11.650;2022-11-06T03:48:21;100994.69;;;4.42;100.00
14612;BME280;7392;52.078;11.650;2022-11-06T03:50:56;100985.16;;;4.45;100.00
14612;BME280;7392;52.078;11.650;2022-11-06T03:53:29;100983.44;;;4.47;100.00
14612;BME280;7392;52.078;11.650;2022-11-06T03:56:02;100989.69;;;4.51;100.00
14612;BME280;7392;52.078;11.650;2022-11-06T03:58:35;100981.88;;;4.54;100.00
14612;BME280;7392;52.078;11.650;2022-11-06T04:01:07;100987.25;;;4.59;100.00
14612;BME280;7392;52.078;11.650;2022-11-06T04:03:40;100977.69;;;4.62;100.00
14612;BME280;7392;52.078;11.650;2022-11-06T04:06:11;100990.94;;;4.65;100.00
14612;BME280;7392;52.078;11.650;2022-11-06T04:08:40;100984.88;;;4.68;100.00
14612;BME280;7392;52.078;11.650;2022-11-06T04:11:27;100984.13;;;4.74;100.00
14612;BME280;7392;52.078;11.650;2022-11-06T04:14:16;100980.72;;;4.78;100.00
14612;BME280;7392;52.078;11.650;2022-11-06T04:16:49;100984.34;;;4.83;100.00
14612;BME280;7392;52.078;11.650;2022-11-06T04:19:20;100980.09;;;4.88;100.00
14612;BME280;7392;52.078;11.650;2022-11-06T04:22:10;100986.31;;;4.92;100.00
14612;BME280;7392;52.078;11.650;2022-11-06T04:24:50;100968.84;;;4.95;100.00
14612;BME280;7392;52.078;11.650;2022-11-06T04:27:48;100977.75;;;5.00;100.00
14612;BME280;7392;52.078;11.650;2022-11-06T04:30:20;100981.38;;;5.04;100.00
14612;BME280;7392;52.078;11.650;2022-11-06T04:32:58;100975.28;;;5.06;100.00
14612;BME280;7392;52.078;11.650;2022-11-06T04:35:39;100982.31;;;5.06;100.00
14612;BME280;7392;52.078;11.650;2022-11-06T04:38:16;100977.03;;;5.06;100.00
14612;BME280;7392;52.078;11.650;2022-11-06T04:40:52;100977.03;;;5.06;100.00
14612;BME280;7392;52.078;11.650;2022-11-06T04:43:24;100983.13;;;5.05;100.00
14612;BME280;7392;52.078;11.650;2022-11-06T04:45:58;100972.56;;;5.03;100.00
14612;BME280;7392;52.078;11.650;2022-11-06T04:48:29;100969.91;;;5.02;100.00
14612;BME280;7392;52.078;11.650;2022-11-06T04:51:00;100970.78;;;5.01;100.00
14612;BME280;7392;52.078;11.650;2022-11-06T04:53:29;100961.94;;;4.99;100.00
14612;BME280;7392;52.078;11.650;2022-11-06T04:56:01;100953.97;;;4.96;100.00
14612;BME280;7392;52.078;11.650;2022-11-06T04:58:32;100961.81;;;4.94;100.00
14612;BME280;7392;52.078;11.650;2022-11-06T05:01:00;100952.06;;;4.90;100.00
14612;BME280;7392;52.078;11.650;2022-11-06T05:03:29;100951.09;;;4.86;100.00
14612;BME280;7392;52.078;11.650;2022-11-06T05:05:57;100952.72;;;4.81;100.00
14612;BME280;7392;52.078;11.650;2022-11-06T05:08:25;100949.13;;;4.78;100.00
14612;BME280;7392;52.078;11.650;2022-11-06T05:10:53;100955.22;;;4.75;100.00
14612;BME280;7392;52.078;11.650;2022-11-06T05:13:20;100950.72;;;4.71;100.00
14612;BME280;7392;52.078;11.650;2022-11-06T05:15:54;100942.75;;;4.66;100.00
14612;BME280;7392;52.078;11.650;2022-11-06T05:18:21;100940.03;;;4.63;100.00
14612;BME280;7392;52.078;11.650;2022-11-06T05:20:51;100932.88;;;4.59;100.00
14612;BME280;7392;52.078;11.650;2022-11-06T05:23:39;100931.09;;;4.57;100.00
14612;BME280;7392;52.078;11.650;2022-11-06T05:26:06;100931.88;;;4.54;100.00
14612;BME280;7392;52.078;11.650;2022-11-06T05:28:34;100937.09;;;4.51;100.00
14612;BME280;7392;52.078;11.650;2022-11-06T05:31:02;100941.34;;;4.47;100.00
14612;BME280;7392;52.078;11.650;2022-11-06T05:33:30;100931.66;;;4.45;100.00
14612;BME280;7392;52.078;11.650;2022-11-06T05:36:02;100934.25;;;4.43;100.00
14612;BME280;7392;52.078;11.650;2022-11-06T05:38:30;100931.56;;;4.42;100.00
14612;BME280;7392;52.078;11.650;2022-11-06T05:40:58;100933.38;;;4.43;100.00
14612;BME280;7392;52.078;11.650;2022-11-06T05:43:26;100933.31;;;4.41;100.00
14612;BME280;7392;52.078;11.650;2022-11-06T05:45:54;100946.44;;;4.40;100.00
14612;BME280;7392;52.078;11.650;2022-11-06T05:48:21;100947.22;;;4.37;100.00
14612;BME280;7392;52.078;11.650;2022-11-06T05:50:49;100950.72;;;4.36;100.00
14612;BME280;7392;52.078;11.650;2022-11-06T05:53:18;100953.25;;;4.33;100.00
14612;BME280;7392;52.078;11.650;2022-11-06T05:55:46;100953.19;;;4.30;100.00
14612;BME280;7392;52.078;11.650;2022-11-06T05:58:14;100947.81;;;4.27;100.00
14612;BME280;7392;52.078;11.650;2022-11-06T06:00:42;100950.41;;;4.24;100.00
14612;BME280;7392;52.078;11.650;2022-11-06T06:03:09;100953.00;;;4.22;100.00
14612;BME280;7392;52.078;11.650;2022-11-06T06:05:37;100952.94;;;4.21;100.00
14612;BME280;7392;52.078;11.650;2022-11-06T06:08:05;100954.69;;;4.22;100.00
14612;BME280;7392;52.078;11.650;2022-11-06T06:10:34;100948.53;;;4.20;100.00
14612;BME280;7392;52.078;11.650;2022-11-06T06:13:06;100949.38;;;4.19;100.00
14612;BME280;7392;52.078;11.650;2022-11-06T06:15:36;100949.25;;;4.14;100.00
14612;BME280;7392;52.078;11.650;2022-11-06T06:18:05;100950.03;;;4.11;100.00
14612;BME280;7392;52.078;11.650;2022-11-06T06:20:33;100957.88;;;4.08;100.00
14612;BME280;7392;52.078;11.650;2022-11-06T06:23:01;100949.00;;;4.05;100.00
14612;BME280;7392;52.078;11.650;2022-11-06T06:25:29;100955.06;;;4.02;100.00
14612;BME280;7392;52.078;11.650;2022-11-06T06:27:58;100956.75;;;4.00;100.00
14612;BME280;7392;52.078;11.650;2022-11-06T06:30:26;100953.22;;;3.98;100.00
14612;BME280;7392;52.078;11.650;2022-11-06T06:32:54;100952.25;;;3.96;100.00
14612;BME280;7392;52.078;11.650;2022-11-06T06:35:21;100961.00;;;3.95;100.00
14612;BME280;7392;52.078;11.650;2022-11-06T06:37:51;100972.34;;;3.94;100.00
14612;BME280;7392;52.078;11.650;2022-11-06T06:40:19;100974.94;;;3.92;100.00
14612;BME280;7392;52.078;11.650;2022-11-06T06:42:47;100974.97;;;3.94;100.00
14612;BME280;7392;52.078;11.650;2022-11-06T06:45:16;100969.75;;;3.96;100.00
14612;BME280;7392;52.078;11.650;2022-11-06T06:47:44;100968.00;;;3.95;100.00
14612;BME280;7392;52.078;11.650;2022-11-06T06:50:12;100960.94;;;3.93;100.00
14612;BME280;7392;52.078;11.650;2022-11-06T06:52:39;100959.22;;;3.94;100.00
14612;BME280;7392;52.078;11.650;2022-11-06T06:55:08;100961.84;;;3.94;100.00
14612;BME280;7392;52.078;11.650;2022-11-06T06:57:36;100954.88;;;3.95;100.00
14612;BME280;7392;52.078;11.650;2022-11-06T07:00:04;100949.63;;;3.96;100.00
14612;BME280;7392;52.078;11.650;2022-11-06T07:02:34;100944.41;;;3.98;100.00
14612;BME280;7392;52.078;11.650;2022-11-06T07:05:01;100941.81;;;3.99;100.00
14612;BME280;7392;52.078;11.650;2022-11-06T07:07:30;100940.13;;;4.00;100.00
14612;BME280;7392;52.078;11.650;2022-11-06T07:09:58;100934.84;;;4.00;100.00
14612;BME280;7392;52.078;11.650;2022-11-06T07:12:26;100939.28;;;4.02;100.00
14612;BME280;7392;52.078;11.650;2022-11-06T07:14:54;100940.34;;;4.09;100.00
14612;BME280;7392;52.078;11.650;2022-11-06T07:17:21;100940.53;;;4.15;100.00
14612;BME280;7392;52.078;11.650;2022-11-06T07:19:51;100937.06;;;4.18;100.00
14612;BME280;7392;52.078;11.650;2022-11-06T07:22:18;100934.63;;;4.24;100.00
14612;BME280;7392;52.078;11.650;2022-11-06T07:24:57;100935.59;;;4.27;100.00
14612;BME280;7392;52.078;11.650;2022-11-06T07:27:25;100941.81;;;4.31;100.00
14612;BME280;7392;52.078;11.650;2022-11-06T07:29:54;100937.66;;;4.39;100.00
14612;BME280;7392;52.078;11.650;2022-11-06T07:32:22;100932.50;;;4.44;100.00
14612;BME280;7392;52.078;11.650;2022-11-06T07:34:51;100932.72;;;4.52;100.00
14612;BME280;7392;52.078;11.650;2022-11-06T07:37:19;100936.38;;;4.58;100.00
14612;BME280;7392;52.078;11.650;2022-11-06T07:39:47;100935.69;;;4.65;100.00
14612;BME280;7392;52.078;11.650;2022-11-06T07:42:14;100941.09;;;4.72;100.00
14612;BME280;7392;52.078;11.650;2022-11-06T07:44:55;100950.09;;;4.81;100.00
14612;BME280;7392;52.078;11.650;2022-11-06T07:47:23;100948.59;;;4.91;100.00
14612;BME280;7392;52.078;11.650;2022-11-06T07:49:54;100929.44;;;4.98;100.00
14612;BME280;7392;52.078;11.650;2022-11-06T07:52:22;100939.34;;;5.09;100.00
14612;BME280;7392;52.078;11.650;2022-11-06T07:54:50;100935.16;;;5.17;100.00
14612;BME280;7392;52.078;11.650;2022-11-06T07:57:18;100937.13;;;5.27;100.00
14612;BME280;7392;52.078;11.650;2022-11-06T07:59:45;100937.28;;;5.33;100.00
14612;BME280;7392;52.078;11.650;2022-11-06T08:02:13;100948.00;;;5.42;100.00
14612;BME280;7392;52.078;11.650;2022-11-06T08:04:42;100949.03;;;5.49;100.00
14612;BME280;7392;52.078;11.650;2022-11-06T08:07:12;100946.59;;;5.58;100.00
14612;BME280;7392;52.078;11.650;2022-11-06T08:09:39;100941.50;;;5.66;100.00
14612;BME280;7392;52.078;11.650;2022-11-06T08:12:07;100941.66;;;5.75;100.00
14612;BME280;7392;52.078;11.650;2022-11-06T08:14:35;100948.03;;;5.85;100.00
14612;BME280;7392;52.078;11.650;2022-11-06T08:17:07;100954.34;;;5.93;100.00
14612;BME280;7392;52.078;11.650;2022-11-06T08:19:34;100947.56;;;6.03;100.00
14612;BME280;7392;52.078;11.650;2022-11-06T08:22:02;100943.28;;;6.11;100.00
14612;BME280;7392;52.078;11.650;2022-11-06T08:24:31;100943.50;;;6.21;100.00
14612;BME280;7392;52.078;11.650;2022-11-06T08:26:59;100932.22;;;6.29;100.00
14612;BME280;7392;52.078;11.650;2022-11-06T08:29:28;100937.66;;;6.40;100.00
14612;BME280;7392;52.078;11.650;2022-11-06T08:31:55;100936.94;;;6.49;100.00
14612;BME280;7392;52.078;11.650;2022-11-06T08:34:23;100942.44;;;6.60;100.00
14612;BME280;7392;52.078;11.650;2022-11-06T08:36:51;100940.81;;;6.69;100.00
14612;BME280;7392;52.078;11.650;2022-11-06T08:39:19;100943.72;;;6.83;100.00
14612;BME280;7392;52.078;11.650;2022-11-06T08:41:48;100929.78;;;6.95;100.00
14612;BME280;7392;52.078;11.650;2022-11-06T08:44:16;100932.63;;;7.06;100.00
14612;BME280;7392;52.078;11.650;2022-11-06T08:46:44;100924.00;;;7.18;100.00
14612;BME280;7392;52.078;11.650;2022-11-06T08:49:17;100924.13;;;7.28;100.00
14612;BME280;7392;52.078;11.650;2022-11-06T08:51:45;100914.59;;;7.40;100.00
14612;BME280;7392;52.078;11.650;2022-11-06T08:54:13;100915.63;;;7.51;100.00
14612;BME280;7392;52.078;11.650;2022-11-06T08:59:20;100921.22;;;7.76;100.00
14612;BME280;7392;52.078;11.650;2022-11-06T09:01:48;100908.16;;;7.88;100.00
14612;BME280;7392;52.078;11.650;2022-11-06T09:04:16;100905.63;;;8.00;100.00
14612;BME280;7392;52.078;11.650;2022-11-06T09:06:44;100898.75;;;8.15;100.00
14612;BME280;7392;52.078;11.650;2022-11-06T09:09:11;100897.94;;;8.27;100.00
14612;BME280;7392;52.078;11.650;2022-11-06T09:11:39;100903.38;;;8.37;100.00
14612;BME280;7392;52.078;11.650;2022-11-06T09:14:07;100891.13;;;8.46;100.00
14612;BME280;7392;52.078;11.650;2022-11-06T09:16:37;100888.59;;;8.58;100.00
14612;BME280;7392;52.078;11.650;2022-11-06T09:19:05;100891.31;;;8.69;100.00
14612;BME280;7392;52.078;11.650;2022-11-06T09:21:33;100884.31;;;8.78;100.00
14612;BME280;7392;52.078;11.650;2022-11-06T09:24:01;100887.97;;;8.94;100.00
14612;BME280;7392;52.078;11.650;2022-11-06T09:26:29;100887.19;;;9.09;100.00
14612;BME280;7392;52.078;11.650;2022-11-06T09:28:57;100889.88;;;9.18;99.45
14612;BME280;7392;52.078;11.650;2022-11-06T09:31:25;100895.22;;;9.25;97.62
14612;BME280;7392;52.078;11.650;2022-11-06T09:33:55;100874.94;;;9.31;94.90
14612;BME280;7392;52.078;11.650;2022-11-06T09:36:23;100871.44;;;9.39;94.55
14612;BME280;7392;52.078;11.650;2022-11-06T09:38:51;100871.47;;;9.45;93.53
14612;BME280;7392;52.078;11.650;2022-11-06T09:41:24;100877.69;;;9.50;91.92
14612;BME280;7392;52.078;11.650;2022-11-06T09:44:07;100876.81;;;9.55;91.42
14612;BME280;7392;52.078;11.650;2022-11-06T09:46:41;100872.44;;;9.64;91.60
14612;BME280;7392;52.078;11.650;2022-11-06T09:49:18;100870.69;;;9.69;90.41
14612;BME280;7392;52.078;11.650;2022-11-06T09:51:51;100883.09;;;9.81;90.99
14612;BME280;7392;52.078;11.650;2022-11-06T09:54:23;100873.41;;;9.89;89.40
14612;BME280;7392;52.078;11.650;2022-11-06T09:56:57;100867.22;;;9.93;89.34
14612;BME280;7392;52.078;11.650;2022-11-06T09:59:28;100881.38;;;10.01;89.34
14612;BME280;7392;52.078;11.650;2022-11-06T10:02:00;100879.63;;;10.08;88.76
14612;BME280;7392;52.078;11.650;2022-11-06T10:04:40;100881.41;;;10.15;87.45
14612;BME280;7392;52.078;11.650;2022-11-06T10:07:26;100876.13;;;10.20;87.31
14612;BME280;7392;52.078;11.650;2022-11-06T10:09:55;100880.53;;;10.27;87.34
14612;BME280;7392;52.078;11.650;2022-11-06T10:12:32;100884.94;;;10.29;86.74
14612;BME280;7392;52.078;11.650;2022-11-06T10:15:11;100868.19;;;10.32;86.23
14612;BME280;7392;52.078;11.650;2022-11-06T10:17:49;100865.53;;;10.37;85.63
14612;BME280;7392;52.078;11.650;2022-11-06T10:20:26;100869.97;;;10.41;85.38
14612;BME280;7392;52.078;11.650;2022-11-06T10:23:03;100874.38;;;10.46;85.33
14612;BME280;7392;52.078;11.650;2022-11-06T10:25:44;100869.09;;;10.54;85.66
14612;BME280;7392;52.078;11.650;2022-11-06T10:28:26;100871.72;;;10.60;85.74
14612;BME280;7392;52.078;11.650;2022-11-06T10:31:02;100862.88;;;10.66;84.21
14612;BME280;7392;52.078;11.650;2022-11-06T10:33:43;100874.41;;;10.70;84.57
14612;BME280;7392;52.078;11.650;2022-11-06T10:36:17;100861.09;;;10.77;84.57
14612;BME280;7392;52.078;11.650;2022-11-06T10:38:46;100855.78;;;10.82;83.94
14612;BME280;7392;52.078;11.650;2022-11-06T10:41:19;100854.91;;;10.81;82.58
14612;BME280;7392;52.078;11.650;2022-11-06T10:43:50;100853.13;;;10.83;82.76
14612;BME280;7392;52.078;11.650;2022-11-06T10:46:25;100843.38;;;10.85;81.24
14612;BME280;7392;52.078;11.650;2022-11-06T10:48:57;100834.50;;;10.90;81.50
14612;BME280;7392;52.078;11.650;2022-11-06T10:54:50;100815.88;;;11.02;82.22
14612;BME280;7392;52.078;11.650;2022-11-06T10:57:30;100814.09;;;11.09;82.44
14612;BME280;7392;52.078;11.650;2022-11-06T11:00:03;100804.28;;;11.17;82.69
14612;BME280;7392;52.078;11.650;2022-11-06T11:02:33;100806.06;;;11.22;81.64
14612;BME280;7392;52.078;11.650;2022-11-06T11:05:10;100794.53;;;11.23;81.13
14612;BME280;7392;52.078;11.650;2022-11-06T11:07:40;100796.31;;;11.23;80.22
14612;BME280;7392;52.078;11.650;2022-11-06T11:10:28;100795.38;;;11.29;80.73
14612;BME280;7392;52.078;11.650;2022-11-06T11:12:58;100798.91;;;11.34;80.48
14612;BME280;7392;52.078;11.650;2022-11-06T11:15:43;100800.69;;;11.39;79.96
14612;BME280;7392;52.078;11.650;2022-11-06T11:18:16;100789.16;;;11.37;78.08
14612;BME280;7392;52.078;11.650;2022-11-06T11:20:45;100783.81;;;11.42;78.80
14612;BME280;7392;52.078;11.650;2022-11-06T11:23:16;100781.16;;;11.44;78.05
14612;BME280;7392;52.078;11.650;2022-11-06T11:25:48;100788.19;;;11.48;78.27
14612;BME280;7392;52.078;11.650;2022-11-06T11:28:28;100785.53;;;11.51;78.09
14612;BME280;7392;52.078;11.650;2022-11-06T11:31:04;100798.81;;;11.62;79.23
14612;BME280;7392;52.078;11.650;2022-11-06T11:33:33;100802.31;;;11.65;77.58
14612;BME280;7392;52.078;11.650;2022-11-06T11:36:02;100783.69;;;11.65;77.12
14612;BME280;7392;52.078;11.650;2022-11-06T11:38:34;100786.31;;;11.71;77.78
14612;BME280;7392;52.078;11.650;2022-11-06T11:41:07;100780.03;;;11.78;77.67
14612;BME280;7392;52.078;11.650;2022-11-06T11:43:35;100778.25;;;11.84;77.12
14612;BME280;7392;52.078;11.650;2022-11-06T11:46:11;100772.03;;;11.86;76.12
14612;BME280;7392;52.078;11.650;2022-11-06T11:48:43;100766.69;;;11.92;76.18
14612;BME280;7392;52.078;11.650;2022-11-06T11:51:27;100769.31;;;11.95;74.62
14612;BME280;7392;52.078;11.650;2022-11-06T11:54:00;100759.50;;;12.04;75.66
14612;BME280;7392;52.078;11.650;2022-11-06T11:56:31;100767.44;;;12.11;75.14
14612;BME280;7392;52.078;11.650;2022-11-06T11:59:22;100754.06;;;12.16;72.90
14612;BME280;7392;52.078;11.650;2022-11-06T12:01:52;100753.16;;;12.22;72.87
14612;BME280;7392;52.078;11.650;2022-11-06T12:04:25;100745.16;;;12.25;71.90
14612;BME280;7392;52.078;11.650;2022-11-06T12:06:57;100743.25;;;12.33;74.11
14612;BME280;7392;52.078;11.650;2022-11-06T12:09:27;100744.03;;;12.47;76.49
14612;BME280;7392;52.078;11.650;2022-11-06T12:11:58;100730.63;;;12.55;76.28
14612;BME280;7392;52.078;11.650;2022-11-06T12:14:30;100726.06;;;12.66;77.29
14612;BME280;7392;52.078;11.650;2022-11-06T12:17:10;100714.41;;;12.75;76.44
14612;BME280;7392;52.078;11.650;2022-11-06T12:19:44;100721.38;;;12.87;76.32
14612;BME280;7392;52.078;11.650;2022-11-06T12:22:20;100704.44;;;12.93;74.52
14612;BME280;7392;52.078;11.650;2022-11-06T12:24:53;100704.34;;;13.02;74.46
14612;BME280;7392;52.078;11.650;2022-11-06T12:27:27;100702.53;;;13.04;73.27
14612;BME280;7392;52.078;11.650;2022-11-06T12:30:03;100701.56;;;13.08;73.48
14612;BME280;7392;52.078;11.650;2022-11-06T12:32:40;100704.16;;;13.16;73.82
14612;BME280;7392;52.078;11.650;2022-11-06T12:35:18;100694.25;;;13.24;72.41
14612;BME280;7392;52.078;11.650;2022-11-06T12:37:57;100690.63;;;13.29;71.96
14612;BME280;7392;52.078;11.650;2022-11-06T12:40:28;100683.47;;;13.35;72.19
14612;BME280;7392;52.078;11.650;2022-11-06T12:43:05;100685.13;;;13.42;72.68
14612;BME280;7392;52.078;11.650;2022-11-06T12:45:49;100681.56;;;13.44;72.26
14612;BME280;7392;52.078;11.650;2022-11-06T12:48:30;100677.03;;;13.50;72.13
14612;BME280;7392;52.078;11.650;2022-11-06T12:51:05;100665.38;;;13.55;71.90
14612;BME280;7392;52.078;11.650;2022-11-06T12:53:45;100668.84;;;13.60;71.46
14612;BME280;7392;52.078;11.650;2022-11-06T12:56:18;100664.34;;;13.64;71.13
14612;BME280;7392;52.078;11.650;2022-11-06T12:59:01;100669.66;;;13.65;70.73
14612;BME280;7392;52.078;11.650;2022-11-06T13:01:46;100660.78;;;13.65;70.39
14612;BME280;7392;52.078;11.650;2022-11-06T13:04:34;100664.28;;;13.69;70.76
14612;BME280;7392;52.078;11.650;2022-11-06T13:07:26;100652.66;;;13.71;70.64
14612;BME280;7392;52.078;11.650;2022-11-06T13:10:05;100642.88;;;13.72;69.23
14612;BME280;7392;52.078;11.650;2022-11-06T13:12:42;100643.72;;;13.74;69.10
14612;BME280;7392;52.078;11.650;2022-11-06T13:15:21;100645.56;;;13.70;68.59
14612;BME280;7392;52.078;11.650;2022-11-06T13:17:56;100634.94;;;13.67;68.73
14612;BME280;7392;52.078;11.650;2022-11-06T13:20:30;100628.81;;;13.60;68.36